createdAt,value
2023-11-07T00:00:02.390Z,6.96
2023-11-07T00:04:55.506Z,6.91
2023-11-07T00:09:47.184Z,6.92
2023-11-07T00:14:39.183Z,6.93
2023-11-07T00:19:30.919Z,6.91
2023-11-07T00:24:22.589Z,6.89
2023-11-07T00:29:14.215Z,6.85
2023-11-07T00:34:07.023Z,6.84
2023-11-07T00:39:00.709Z,6.79
2023-11-07T00:43:52.573Z,6.81
2023-11-07T00:48:44.679Z,6.80
2023-11-07T00:53:36.606Z,6.80
2023-11-07T00:58:28.303Z,6.76
2023-11-07T01:03:20.138Z,6.74
2023-11-07T01:08:12.084Z,6.72
2023-11-07T01:13:05.195Z,6.67
2023-11-07T01:17:57.274Z,6.59
2023-11-07T01:22:49.107Z,6.59
2023-11-07T01:27:40.759Z,6.59
2023-11-07T01:32:33.356Z,6.58
2023-11-07T01:37:25.292Z,6.61
2023-11-07T01:42:17.069Z,6.64
2023-11-07T01:47:08.818Z,6.62
2023-11-07T01:52:00.574Z,6.61
2023-11-07T01:56:52.807Z,6.65
2023-11-07T02:01:48.347Z,6.65
2023-11-07T02:06:40.254Z,6.61
2023-11-07T02:11:33.208Z,6.56
2023-11-07T02:16:25.136Z,6.52
2023-11-07T02:21:17.084Z,6.50
2023-11-07T02:26:08.718Z,6.51
2023-11-07T02:31:01.111Z,6.39
2023-11-07T02:35:52.878Z,6.41
2023-11-07T02:40:44.945Z,6.44
2023-11-07T02:45:38.198Z,6.41
2023-11-07T02:50:29.965Z,6.40
2023-11-07T02:55:21.660Z,6.47
2023-11-07T03:00:14.380Z,6.45
2023-11-07T03:05:07.561Z,6.48
2023-11-07T03:09:59.320Z,6.52
2023-11-07T03:14:51.035Z,6.50
2023-11-07T03:19:44.219Z,6.52
2023-11-07T03:24:36.031Z,6.51
2023-11-07T03:29:29.060Z,6.51
2023-11-07T03:34:20.956Z,6.48
2023-11-07T03:39:12.626Z,6.46
2023-11-07T03:44:04.758Z,6.47
2023-11-07T03:48:56.599Z,6.44
2023-11-07T03:53:48.422Z,6.41
2023-11-07T03:58:40.076Z,6.41
2023-11-07T04:03:31.871Z,6.36
2023-11-07T04:08:23.576Z,6.39
2023-11-07T04:13:15.309Z,6.42
2023-11-07T04:18:11.495Z,6.43
2023-11-07T04:23:04.226Z,6.39
2023-11-07T04:27:56.058Z,6.41
2023-11-07T04:32:47.826Z,6.45
2023-11-07T04:37:39.493Z,6.47
2023-11-07T04:42:31.236Z,6.51
2023-11-07T04:47:23.533Z,6.53
2023-11-07T04:52:15.217Z,6.54
2023-11-07T04:57:07.561Z,6.56
2023-11-07T05:01:59.213Z,6.61
2023-11-07T05:06:51.147Z,6.62
2023-11-07T05:11:44.449Z,6.65
2023-11-07T05:16:37.526Z,6.67
2023-11-07T05:21:29.324Z,6.67
2023-11-07T05:26:21.020Z,6.70
2023-11-07T05:31:12.681Z,6.71
2023-11-07T05:36:04.842Z,6.77
2023-11-07T05:40:56.694Z,6.80
2023-11-07T05:45:48.453Z,6.82
2023-11-07T05:50:40.829Z,6.91
2023-11-07T05:55:32.635Z,6.93
2023-11-07T06:00:24.282Z,6.94
2023-11-07T06:05:16.088Z,6.92
2023-11-07T06:10:08.966Z,6.98
2023-11-07T06:15:00.848Z,7.02
2023-11-07T06:19:52.677Z,7.03
2023-11-07T06:24:45.430Z,7.02
2023-11-07T06:29:42.304Z,7.02
2023-11-07T06:34:35.092Z,7.03
2023-11-07T06:39:27.184Z,7.02
2023-11-07T06:44:18.868Z,7.02
2023-11-07T06:49:10.917Z,6.97
2023-11-07T06:54:05.814Z,6.89
2023-11-07T06:58:57.729Z,6.86
2023-11-07T07:03:50.186Z,6.80
2023-11-07T07:08:42.843Z,6.78
2023-11-07T07:13:34.887Z,6.76
2023-11-07T07:18:28.481Z,6.80
2023-11-07T07:23:25.901Z,6.81
2023-11-07T07:28:19.898Z,6.81
2023-11-07T07:33:11.868Z,6.82
2023-11-07T07:38:04.624Z,6.80
2023-11-07T07:42:59.720Z,6.76
2023-11-07T07:47:51.633Z,6.71
2023-11-07T07:52:46.263Z,6.75
2023-11-07T07:57:38.397Z,6.75
2023-11-07T08:02:30.238Z,6.71
2023-11-07T08:07:21.994Z,6.70
2023-11-07T08:12:14.173Z,6.70
2023-11-07T08:17:05.946Z,6.72
2023-11-07T08:21:57.777Z,6.79
2023-11-07T08:26:49.557Z,6.91
2023-11-07T08:31:41.233Z,7.50
2023-11-07T08:36:35.627Z,8.20
2023-11-07T08:41:27.565Z,8.50
2023-11-07T08:46:26.800Z,8.62
2023-11-07T08:51:20.124Z,9.05
2023-11-07T08:56:15.725Z,9.55
2023-11-07T09:01:09.107Z,10.00
2023-11-07T09:06:00.923Z,10.46
2023-11-07T09:10:52.778Z,10.88
2023-11-07T09:15:44.437Z,11.08
2023-11-07T09:20:36.098Z,11.49
2023-11-07T09:25:27.930Z,11.41
2023-11-07T09:30:19.871Z,11.33
2023-11-07T09:35:12.604Z,11.08
2023-11-07T09:40:11.930Z,11.03
2023-11-07T09:45:12.729Z,11.44
2023-11-07T09:50:09.161Z,11.99
2023-11-07T09:55:10.186Z,12.46
2023-11-07T10:00:03.671Z,12.87
2023-11-07T10:04:57.259Z,13.20
2023-11-07T10:09:49.192Z,13.56
2023-11-07T10:14:40.917Z,13.91
2023-11-07T10:19:33.696Z,14.19
2023-11-07T10:24:25.412Z,14.36
2023-11-07T10:29:25.504Z,14.65
2023-11-07T10:34:18.463Z,14.50
2023-11-07T10:39:25.869Z,14.21
2023-11-07T10:44:30.347Z,14.36
2023-11-07T10:49:22.996Z,14.61
2023-11-07T10:54:15.722Z,14.82
2023-11-07T10:59:18.116Z,14.80
2023-11-07T11:04:12.824Z,14.62
2023-11-07T11:09:12.674Z,14.39
2023-11-07T11:14:09.849Z,14.16
2023-11-07T11:19:26.198Z,13.98
2023-11-07T11:24:36.884Z,13.85
2023-11-07T11:29:30.579Z,13.61
2023-11-07T11:34:27.130Z,13.48
2023-11-07T11:39:31.909Z,13.38
2023-11-07T11:44:25.912Z,13.25
2023-11-07T11:49:19.406Z,13.11
2023-11-07T11:54:12.388Z,12.93
2023-11-07T11:59:07.103Z,12.92
2023-11-07T12:04:00.414Z,12.88
2023-11-07T12:08:54.245Z,12.82
2023-11-07T12:13:46.022Z,12.76
2023-11-07T12:18:42.485Z,12.81
2023-11-07T12:23:34.229Z,12.82
2023-11-07T12:28:25.999Z,12.64
2023-11-07T12:33:18.832Z,12.56
2023-11-07T12:38:11.189Z,12.49
2023-11-07T12:43:07.992Z,12.59
2023-11-07T12:48:07.820Z,12.58
2023-11-07T12:53:02.117Z,12.44
2023-11-07T12:58:01.957Z,12.26
2023-11-07T13:02:58.956Z,12.13
2023-11-07T13:07:51.510Z,12.11
2023-11-07T13:12:44.242Z,12.10
2023-11-07T13:17:35.864Z,12.20
2023-11-07T13:22:27.568Z,12.22
2023-11-07T13:27:19.195Z,12.29
2023-11-07T13:32:10.942Z,12.33
2023-11-07T13:37:02.809Z,12.41
2023-11-07T13:41:54.740Z,12.27
2023-11-07T13:46:48.155Z,11.98
2023-11-07T13:51:40.025Z,11.61
2023-11-07T13:56:31.831Z,11.20
2023-11-07T14:01:24.246Z,11.08
2023-11-07T14:06:18.606Z,11.08
2023-11-07T14:11:11.483Z,11.07
2023-11-07T14:16:03.437Z,11.02
2023-11-07T14:20:59.518Z,10.96
2023-11-07T14:25:52.365Z,10.86
2023-11-07T14:30:47.459Z,10.81
2023-11-07T14:35:39.476Z,10.73
2023-11-07T14:40:32.326Z,10.62
2023-11-07T14:45:24.715Z,10.59
2023-11-07T14:50:18.160Z,10.55
2023-11-07T14:55:15.154Z,10.49
2023-11-07T15:00:10.386Z,10.47
2023-11-07T15:05:02.685Z,10.45
2023-11-07T15:09:54.466Z,10.46
2023-11-07T15:14:47.106Z,10.45
2023-11-07T15:19:38.894Z,10.53
2023-11-07T15:24:30.720Z,10.61
2023-11-07T15:29:24.272Z,10.62
2023-11-07T15:34:16.154Z,10.59
2023-11-07T15:39:13.699Z,10.55
2023-11-07T15:44:06.055Z,10.49
2023-11-07T15:48:58.969Z,10.45
2023-11-07T15:53:50.794Z,10.41
2023-11-07T15:58:42.506Z,10.33
2023-11-07T16:03:34.301Z,10.28
2023-11-07T16:08:27.216Z,10.24
2023-11-07T16:13:19.044Z,10.21
2023-11-07T16:18:12.351Z,10.24
2023-11-07T16:23:04.577Z,10.19
2023-11-07T16:27:56.569Z,10.07
2023-11-07T16:32:48.500Z,9.91
2023-11-07T16:37:40.418Z,9.83
2023-11-07T16:42:32.603Z,9.73
2023-11-07T16:47:24.464Z,9.61
2023-11-07T16:52:16.612Z,9.49
2023-11-07T16:57:09.861Z,9.40
2023-11-07T17:02:01.559Z,9.25
2023-11-07T17:06:54.295Z,9.14
2023-11-07T17:11:46.146Z,9.04
2023-11-07T17:16:38.868Z,8.96
2023-11-07T17:21:30.648Z,8.87
2023-11-07T17:26:22.525Z,8.77
2023-11-07T17:31:14.443Z,8.66
2023-11-07T17:36:11.831Z,8.60
2023-11-07T17:41:03.554Z,8.52
2023-11-07T17:45:55.399Z,8.45
2023-11-07T17:50:47.255Z,8.31
2023-11-07T17:55:40.619Z,8.27
2023-11-07T18:00:32.496Z,8.18
2023-11-07T18:05:27.831Z,8.11
2023-11-07T18:10:19.762Z,8.05
2023-11-07T18:15:11.699Z,8.01
2023-11-07T18:20:03.764Z,7.98
2023-11-07T18:24:55.473Z,7.98
2023-11-07T18:29:47.275Z,7.96
2023-11-07T18:34:39.116Z,7.92
2023-11-07T18:39:34.953Z,7.85
2023-11-07T18:44:32.164Z,7.78
2023-11-07T18:49:24.429Z,7.76
2023-11-07T18:54:16.522Z,7.75
2023-11-07T18:59:08.373Z,7.70
2023-11-07T19:04:00.201Z,7.67
2023-11-07T19:08:52.797Z,7.63
2023-11-07T19:13:44.662Z,7.53
2023-11-07T19:18:39.208Z,7.44
2023-11-07T19:23:31.061Z,7.41
2023-11-07T19:28:23.194Z,7.41
2023-11-07T19:33:14.969Z,7.29
2023-11-07T19:38:06.909Z,7.33
2023-11-07T19:42:58.699Z,7.27
2023-11-07T19:47:50.738Z,7.21
2023-11-07T19:52:43.514Z,7.14
2023-11-07T19:57:35.502Z,7.08
2023-11-07T20:02:27.332Z,7.07
2023-11-07T20:07:19.475Z,7.03
2023-11-07T20:12:11.193Z,7.02
2023-11-07T20:17:02.958Z,6.96
2023-11-07T20:21:54.763Z,6.94
2023-11-07T20:26:46.590Z,6.91
2023-11-07T20:31:38.502Z,6.90
2023-11-07T20:36:30.989Z,6.87
2023-11-07T20:41:22.998Z,6.88
2023-11-07T20:46:32.996Z,6.85
2023-11-07T20:51:26.183Z,6.82
2023-11-07T20:56:20.934Z,6.81
2023-11-07T21:01:14.677Z,6.79
2023-11-07T21:06:06.985Z,6.81
2023-11-07T21:10:58.906Z,6.84
2023-11-07T21:15:50.569Z,6.82
2023-11-07T21:20:42.260Z,6.84
2023-11-07T21:25:33.979Z,6.88
2023-11-07T21:30:26.646Z,6.87
2023-11-07T21:35:19.631Z,6.87
2023-11-07T21:40:13.047Z,6.86
2023-11-07T21:45:05.788Z,6.88
2023-11-07T21:49:57.631Z,6.91
2023-11-07T21:54:50.234Z,6.93
2023-11-07T21:59:42.109Z,6.90
2023-11-07T22:04:34.062Z,6.87
2023-11-07T22:09:25.781Z,6.86
2023-11-07T22:14:17.505Z,6.88
2023-11-07T22:19:09.476Z,6.85
2023-11-07T22:24:01.241Z,6.81
2023-11-07T22:28:54.013Z,6.83
2023-11-07T22:33:46.991Z,6.82
2023-11-07T22:38:39.370Z,6.77
2023-11-07T22:43:31.258Z,6.71
2023-11-07T22:48:24.125Z,6.66
2023-11-07T22:53:15.905Z,6.66
2023-11-07T22:58:09.373Z,6.66
2023-11-07T23:03:01.135Z,6.65
2023-11-07T23:07:52.901Z,6.60
2023-11-07T23:12:45.964Z,6.58
2023-11-07T23:17:38.352Z,6.60
2023-11-07T23:22:30.070Z,6.54
2023-11-07T23:27:21.835Z,6.50
2023-11-07T23:32:13.975Z,6.53
2023-11-07T23:37:05.758Z,6.52
2023-11-07T23:41:57.466Z,6.56
2023-11-07T23:46:49.196Z,6.53
2023-11-07T23:51:41.091Z,6.55
2023-11-07T23:56:33.218Z,6.58
